createdAt,value
2022-12-27T00:01:34.198Z,0.85
2022-12-27T00:04:36.045Z,0.73
2022-12-27T00:07:37.515Z,0.60
2022-12-27T00:10:38.942Z,0.85
2022-12-27T00:13:40.484Z,1.00
2022-12-27T00:16:41.788Z,0.65
2022-12-27T00:19:43.065Z,0.93
2022-12-27T00:22:44.363Z,0.60
2022-12-27T00:25:45.681Z,1.20
2022-12-27T00:28:47.092Z,0.88
2022-12-27T00:31:48.402Z,0.52
2022-12-27T00:34:49.710Z,0.63
2022-12-27T00:37:51.002Z,0.65
2022-12-27T00:40:52.259Z,0.70
2022-12-27T00:43:53.655Z,1.13
2022-12-27T00:46:55.005Z,0.47
2022-12-27T00:49:56.363Z,0.65
2022-12-27T00:52:57.687Z,0.73
2022-12-27T00:55:59.122Z,0.55
2022-12-27T00:59:01.929Z,0.88
2022-12-27T01:02:03.549Z,0.65
2022-12-27T01:05:05.435Z,1.08
2022-12-27T01:08:06.776Z,0.73
2022-12-27T01:11:08.593Z,0.45
2022-12-27T01:14:09.950Z,0.60
2022-12-27T01:17:11.227Z,0.60
2022-12-27T01:20:13.045Z,0.45
2022-12-27T01:23:14.447Z,0.73
2022-12-27T01:26:17.253Z,0.57
2022-12-27T01:29:18.717Z,0.65
2022-12-27T01:32:19.955Z,0.55
2022-12-27T01:35:21.252Z,0.52
2022-12-27T01:38:22.628Z,0.52
2022-12-27T01:41:47.903Z,0.50
2022-12-27T01:44:56.407Z,0.75
2022-12-27T01:48:15.267Z,0.68
2022-12-27T01:51:16.873Z,0.52
2022-12-27T01:54:18.215Z,0.60
2022-12-27T01:57:20.220Z,0.50
2022-12-27T02:00:21.618Z,0.77
2022-12-27T02:03:43.518Z,0.55
2022-12-27T02:06:45.705Z,0.63
2022-12-27T02:09:49.786Z,0.65
2022-12-27T02:12:51.494Z,0.52
2022-12-27T02:15:52.877Z,0.70
2022-12-27T02:18:54.194Z,1.23
2022-12-27T02:22:04.629Z,0.63
2022-12-27T02:25:14.844Z,0.52
2022-12-27T02:28:35.081Z,0.68
2022-12-27T02:31:41.250Z,0.93
2022-12-27T02:34:51.999Z,0.90
2022-12-27T02:37:56.518Z,0.68
2022-12-27T02:41:18.086Z,1.00
2022-12-27T02:44:38.065Z,1.00
2022-12-27T02:47:58.101Z,0.60
2022-12-27T02:51:28.361Z,0.93
2022-12-27T02:54:35.904Z,0.90
2022-12-27T02:57:40.166Z,0.63
2022-12-27T03:01:10.181Z,0.82
2022-12-27T03:04:17.109Z,0.77
2022-12-27T03:07:41.558Z,0.65
2022-12-27T03:11:04.811Z,0.47
2022-12-27T03:14:35.383Z,0.63
2022-12-27T03:17:46.578Z,0.82
2022-12-27T03:21:07.307Z,0.63
2022-12-27T03:24:27.404Z,0.85
2022-12-27T03:27:33.083Z,0.98
2022-12-27T03:31:03.414Z,0.77
2022-12-27T03:34:27.083Z,1.20
2022-12-27T03:37:48.630Z,0.85
2022-12-27T03:41:11.099Z,0.90
2022-12-27T03:44:24.577Z,0.82
2022-12-27T03:47:48.932Z,0.85
2022-12-27T03:50:54.538Z,0.88
2022-12-27T03:54:00.190Z,1.00
2022-12-27T03:57:06.688Z,1.17
2022-12-27T04:00:08.929Z,0.88
2022-12-27T04:03:10.266Z,1.02
2022-12-27T04:06:11.548Z,0.73
2022-12-27T04:09:31.503Z,0.80
2022-12-27T04:12:51.315Z,0.88
2022-12-27T04:16:11.490Z,1.40
2022-12-27T04:19:31.470Z,0.85
2022-12-27T04:22:51.629Z,1.02
2022-12-27T04:26:11.743Z,0.73
2022-12-27T04:29:31.592Z,0.60
2022-12-27T04:32:51.721Z,1.05
2022-12-27T04:35:53.135Z,0.57
2022-12-27T04:38:57.248Z,0.85
2022-12-27T04:42:17.163Z,0.93
2022-12-27T04:45:37.088Z,1.05
2022-12-27T04:48:56.923Z,0.88
2022-12-27T04:52:16.950Z,1.08
2022-12-27T04:55:20.801Z,1.10
2022-12-27T04:58:22.174Z,0.98
2022-12-27T05:01:42.386Z,0.80
2022-12-27T05:04:44.176Z,0.80
2022-12-27T05:08:03.983Z,0.95
2022-12-27T05:11:24.832Z,0.60
2022-12-27T05:14:26.066Z,0.73
2022-12-27T05:17:27.315Z,0.50
2022-12-27T05:20:28.712Z,0.75
2022-12-27T05:23:48.773Z,1.10
2022-12-27T05:26:50.054Z,1.10
2022-12-27T05:29:51.364Z,1.02
2022-12-27T05:32:56.270Z,0.73
2022-12-27T05:35:58.482Z,1.00
2022-12-27T05:38:59.748Z,1.00
2022-12-27T05:42:00.998Z,0.90
2022-12-27T05:45:02.246Z,0.98
2022-12-27T05:48:03.648Z,0.95
2022-12-27T05:51:12.719Z,1.20
2022-12-27T05:54:14.018Z,0.93
2022-12-27T05:57:15.316Z,1.20
2022-12-27T06:00:16.701Z,1.00
2022-12-27T06:03:18.098Z,1.35
2022-12-27T06:06:19.602Z,0.73
2022-12-27T06:09:20.957Z,2.10
2022-12-27T06:12:22.244Z,1.30
2022-12-27T06:15:23.486Z,1.08
2022-12-27T06:18:24.721Z,1.15
2022-12-27T06:21:26.059Z,1.08
2022-12-27T06:24:27.363Z,1.02
2022-12-27T06:27:28.597Z,5.05
2022-12-27T06:30:35.832Z,1.42
2022-12-27T06:33:37.535Z,1.63
2022-12-27T06:36:38.936Z,0.90
2022-12-27T06:39:40.222Z,0.98
2022-12-27T06:42:41.501Z,1.60
2022-12-27T06:45:42.820Z,1.40
2022-12-27T06:48:44.867Z,1.35
2022-12-27T06:51:50.365Z,1.10
2022-12-27T06:54:55.563Z,0.68
2022-12-27T06:57:56.868Z,1.05
2022-12-27T07:00:58.186Z,0.82
2022-12-27T07:04:00.363Z,1.10
2022-12-27T07:07:01.623Z,0.98
2022-12-27T07:10:03.287Z,0.88
2022-12-27T07:13:04.525Z,1.48
2022-12-27T07:16:06.575Z,2.50
2022-12-27T07:19:09.699Z,1.30
2022-12-27T07:22:11.047Z,1.20
2022-12-27T07:25:12.356Z,1.60
2022-12-27T07:28:13.662Z,1.60
2022-12-27T07:31:20.337Z,2.63
2022-12-27T07:34:22.074Z,1.17
2022-12-27T07:37:23.783Z,1.70
2022-12-27T07:40:25.315Z,1.50
2022-12-27T07:43:29.154Z,1.80
2022-12-27T07:46:30.495Z,2.17
2022-12-27T07:49:31.747Z,2.45
2022-12-27T07:52:33.065Z,1.83
2022-12-27T07:55:34.368Z,1.80
2022-12-27T07:58:36.631Z,1.20
2022-12-27T08:01:56.687Z,1.25
2022-12-27T08:04:58.024Z,1.27
2022-12-27T08:08:01.685Z,1.77
2022-12-27T08:11:05.708Z,1.08
2022-12-27T08:14:07.357Z,2.22
2022-12-27T08:17:17.695Z,2.03
2022-12-27T08:20:19.016Z,0.95
2022-12-27T08:23:20.417Z,1.80
2022-12-27T08:26:21.714Z,1.42
2022-12-27T08:29:23.069Z,2.05
2022-12-27T08:32:24.435Z,1.63
2022-12-27T08:35:51.480Z,1.58
2022-12-27T08:38:46.942Z,1.08
2022-12-27T08:41:48.347Z,1.27
2022-12-27T08:44:49.660Z,1.23
2022-12-27T08:47:50.928Z,1.15
2022-12-27T08:50:52.287Z,1.63
2022-12-27T08:53:53.594Z,1.23
2022-12-27T08:56:54.855Z,1.10
2022-12-27T08:59:56.172Z,2.10
2022-12-27T09:02:58.079Z,1.65
2022-12-27T09:06:16.248Z,1.45
2022-12-27T09:12:18.772Z,1.15
2022-12-27T09:15:20.113Z,1.25
2022-12-27T09:18:21.379Z,1.25
2022-12-27T09:21:23.673Z,1.85
2022-12-27T09:24:25.150Z,1.38
2022-12-27T09:27:26.427Z,1.73
2022-12-27T09:30:28.829Z,1.88
2022-12-27T09:33:30.443Z,2.70
2022-12-27T09:36:31.764Z,2.15
2022-12-27T09:39:33.039Z,2.22
2022-12-27T09:42:56.658Z,2.60
2022-12-27T09:46:05.548Z,2.20
2022-12-27T09:49:10.144Z,1.73
2022-12-27T09:52:14.522Z,1.65
2022-12-27T09:55:17.697Z,1.60
2022-12-27T09:58:38.691Z,1.67
2022-12-27T10:01:44.664Z,1.63
2022-12-27T10:05:18.685Z,1.92
2022-12-27T10:08:07.399Z,1.45
2022-12-27T10:11:41.315Z,1.92
2022-12-27T10:15:01.057Z,1.50
2022-12-27T10:18:20.505Z,2.00
2022-12-27T10:21:26.577Z,1.90
2022-12-27T10:24:35.004Z,2.65
2022-12-27T10:27:37.363Z,1.85
2022-12-27T10:30:39.543Z,1.55
2022-12-27T10:33:40.867Z,1.67
2022-12-27T10:36:42.948Z,1.67
2022-12-27T10:39:44.293Z,1.05
2022-12-27T10:42:56.807Z,1.30
2022-12-27T10:46:10.769Z,1.38
2022-12-27T10:49:22.486Z,2.42
2022-12-27T10:52:24.148Z,1.83
2022-12-27T10:55:33.675Z,1.73
2022-12-27T10:58:34.902Z,1.83
2022-12-27T11:01:36.465Z,1.45
2022-12-27T11:04:54.833Z,1.63
2022-12-27T11:07:56.603Z,1.70
2022-12-27T11:11:19.692Z,1.38
2022-12-27T11:14:21.070Z,1.45
2022-12-27T11:17:39.084Z,1.92
2022-12-27T11:20:45.265Z,1.55
2022-12-27T11:23:52.589Z,1.23
2022-12-27T11:26:59.154Z,1.27
2022-12-27T11:30:00.883Z,1.30
2022-12-27T11:33:04.032Z,1.58
2022-12-27T11:36:06.360Z,2.72
2022-12-27T11:39:08.364Z,1.27
2022-12-27T11:42:25.460Z,1.80
2022-12-27T11:45:32.147Z,1.42
2022-12-27T11:48:36.389Z,1.23
2022-12-27T11:51:49.126Z,1.30
2022-12-27T11:55:02.797Z,2.05
2022-12-27T11:58:15.497Z,1.35
2022-12-27T12:01:27.711Z,1.45
2022-12-27T12:04:48.065Z,1.58
2022-12-27T12:07:58.810Z,1.52
2022-12-27T12:11:15.407Z,1.15
2022-12-27T12:14:22.735Z,1.85
2022-12-27T12:17:43.249Z,1.63
2022-12-27T12:21:03.081Z,1.17
2022-12-27T12:24:06.454Z,1.70
2022-12-27T12:27:07.747Z,1.17
2022-12-27T12:30:12.287Z,1.23
2022-12-27T12:36:40.988Z,1.80
2022-12-27T12:39:57.588Z,1.20
2022-12-27T12:43:11.121Z,1.33
2022-12-27T12:46:15.486Z,1.33
2022-12-27T12:49:33.067Z,0.82
2022-12-27T12:52:52.344Z,0.73
2022-12-27T12:55:56.455Z,1.23
2022-12-27T12:59:10.421Z,1.15
2022-12-27T13:02:30.762Z,1.20
2022-12-27T13:05:38.033Z,0.98
2022-12-27T13:08:39.350Z,0.95
2022-12-27T13:11:58.566Z,2.00
2022-12-27T13:15:23.944Z,1.00
2022-12-27T13:18:38.090Z,1.13
2022-12-27T13:21:58.234Z,1.13
2022-12-27T13:24:59.569Z,1.00
2022-12-27T13:28:00.957Z,1.42
2022-12-27T13:31:08.219Z,1.38
2022-12-27T13:34:18.727Z,0.98
2022-12-27T13:37:27.907Z,1.17
2022-12-27T13:40:29.248Z,0.93
2022-12-27T13:43:39.483Z,1.30
2022-12-27T13:46:42.835Z,1.50
2022-12-27T13:50:03.083Z,1.13
2022-12-27T13:53:04.329Z,1.17
2022-12-27T13:56:53.249Z,1.30
2022-12-27T14:00:05.775Z,0.95
2022-12-27T14:03:25.977Z,1.45
2022-12-27T14:06:34.245Z,1.05
2022-12-27T14:09:54.515Z,0.82
2022-12-27T14:12:57.318Z,0.80
2022-12-27T14:16:13.450Z,1.38
2022-12-27T14:19:14.799Z,0.90
2022-12-27T14:22:34.794Z,1.65
2022-12-27T14:25:45.092Z,1.05
2022-12-27T14:28:53.454Z,1.13
2022-12-27T14:35:18.038Z,1.08
2022-12-27T14:38:45.741Z,1.20
2022-12-27T14:42:05.666Z,1.15
2022-12-27T14:45:21.619Z,1.13
2022-12-27T14:48:30.177Z,1.23
2022-12-27T14:52:00.826Z,1.23
2022-12-27T14:55:06.491Z,1.02
2022-12-27T14:58:24.003Z,2.20
2022-12-27T15:01:25.375Z,2.50
2022-12-27T15:04:26.667Z,3.17
2022-12-27T15:07:39.995Z,2.55
2022-12-27T15:10:59.180Z,1.52
2022-12-27T15:14:17.631Z,1.23
2022-12-27T15:17:18.873Z,1.42
2022-12-27T15:20:20.152Z,2.00
2022-12-27T15:23:42.569Z,2.65
2022-12-27T15:26:51.978Z,2.22
2022-12-27T15:30:19.377Z,2.67
2022-12-27T15:33:27.813Z,1.80
2022-12-27T15:36:37.721Z,2.13
2022-12-27T15:39:39.358Z,1.67
2022-12-27T15:42:50.666Z,1.63
2022-12-27T15:46:07.945Z,1.70
2022-12-27T15:49:12.330Z,1.63
2022-12-27T15:52:19.507Z,2.10
2022-12-27T15:55:34.515Z,2.05
2022-12-27T15:58:35.949Z,1.98
2022-12-27T16:01:39.127Z,2.53
2022-12-27T16:04:51.999Z,1.83
2022-12-27T16:08:13.299Z,1.80
2022-12-27T16:11:15.397Z,1.95
2022-12-27T16:14:24.547Z,1.95
2022-12-27T16:17:38.849Z,1.40
2022-12-27T16:20:40.125Z,2.42
2022-12-27T16:23:41.365Z,1.55
2022-12-27T16:26:51.663Z,1.65
2022-12-27T16:29:54.505Z,1.92
2022-12-27T16:32:55.815Z,2.30
2022-12-27T16:36:12.287Z,1.73
2022-12-27T16:39:28.639Z,2.00
2022-12-27T16:42:49.903Z,1.55
2022-12-27T16:46:07.514Z,1.50
2022-12-27T16:49:14.915Z,2.05
2022-12-27T16:52:25.771Z,1.77
2022-12-27T16:55:42.790Z,1.92
2022-12-27T16:58:44.236Z,1.60
2022-12-27T17:01:45.654Z,1.77
2022-12-27T17:04:49.994Z,1.42
2022-12-27T17:07:55.231Z,1.52
2022-12-27T17:10:58.209Z,2.00
2022-12-27T17:14:03.971Z,1.30
2022-12-27T17:17:23.037Z,1.55
2022-12-27T17:20:25.348Z,1.60
2022-12-27T17:23:26.886Z,2.42
2022-12-27T17:26:51.551Z,2.05
2022-12-27T17:29:52.832Z,1.52
2022-12-27T17:32:57.587Z,1.80
2022-12-27T17:36:11.026Z,1.88
2022-12-27T17:39:12.296Z,2.35
2022-12-27T17:42:32.317Z,1.85
2022-12-27T17:45:42.910Z,1.85
2022-12-27T17:48:44.632Z,1.55
2022-12-27T17:52:04.953Z,2.20
2022-12-27T17:55:41.920Z,2.50
2022-12-27T17:58:43.219Z,1.95
2022-12-27T18:01:46.797Z,1.77
2022-12-27T18:04:50.267Z,2.25
2022-12-27T18:07:58.822Z,2.33
2022-12-27T18:11:01.630Z,2.05
2022-12-27T18:14:03.981Z,2.03
2022-12-27T18:17:05.280Z,1.80
2022-12-27T18:20:25.183Z,1.98
2022-12-27T18:23:26.794Z,2.47
2022-12-27T18:26:38.273Z,2.88
2022-12-27T18:29:39.555Z,2.22
2022-12-27T18:32:40.835Z,3.25
2022-12-27T18:35:49.652Z,3.60
2022-12-27T18:39:08.514Z,3.75
2022-12-27T18:42:21.076Z,4.25
2022-12-27T18:45:27.221Z,3.10
2022-12-27T18:48:32.355Z,3.50
2022-12-27T18:51:36.107Z,3.85
2022-12-27T18:54:37.498Z,3.17
2022-12-27T18:57:38.729Z,2.70
2022-12-27T19:01:03.466Z,3.58
2022-12-27T19:07:10.782Z,1.85
2022-12-27T19:10:16.581Z,2.45
2022-12-27T19:13:50.375Z,1.90
2022-12-27T19:16:56.533Z,3.45
2022-12-27T19:19:59.562Z,3.40
2022-12-27T19:23:02.305Z,2.63
2022-12-27T19:26:15.548Z,2.75
2022-12-27T19:29:18.383Z,3.72
2022-12-27T19:32:31.355Z,4.90
2022-12-27T19:35:32.936Z,4.47
2022-12-27T19:38:34.362Z,4.00
2022-12-27T19:41:38.163Z,3.13
2022-12-27T19:44:39.473Z,2.60
2022-12-27T19:47:40.878Z,2.63
2022-12-27T19:50:45.592Z,2.58
2022-12-27T19:53:57.329Z,2.38
2022-12-27T19:56:59.721Z,2.40
2022-12-27T20:00:05.402Z,2.45
2022-12-27T20:03:10.736Z,1.60
2022-12-27T20:06:22.743Z,1.77
2022-12-27T20:09:27.964Z,2.30
2022-12-27T20:12:29.271Z,2.28
2022-12-27T20:15:30.899Z,2.67
2022-12-27T20:18:32.195Z,2.00
2022-12-27T20:21:33.557Z,2.83
2022-12-27T20:24:35.087Z,2.58
2022-12-27T20:27:36.563Z,2.22
2022-12-27T20:30:38.909Z,2.85
2022-12-27T20:33:41.521Z,3.83
2022-12-27T20:36:43.404Z,2.75
2022-12-27T20:39:45.673Z,2.90
2022-12-27T20:42:46.943Z,2.75
2022-12-27T20:45:48.257Z,3.10
2022-12-27T20:48:49.735Z,2.40
2022-12-27T20:51:51.108Z,2.55
2022-12-27T20:54:52.466Z,2.67
2022-12-27T20:57:53.774Z,2.42
2022-12-27T21:00:55.229Z,2.45
2022-12-27T21:03:57.010Z,2.42
2022-12-27T21:06:58.342Z,2.55
2022-12-27T21:09:59.673Z,3.20
2022-12-27T21:13:01.074Z,2.20
2022-12-27T21:16:02.487Z,2.53
2022-12-27T21:19:05.278Z,1.90
2022-12-27T21:22:06.734Z,1.27
2022-12-27T21:25:08.271Z,2.05
2022-12-27T21:28:09.563Z,2.47
2022-12-27T21:31:11.583Z,1.95
2022-12-27T21:34:12.902Z,2.17
2022-12-27T21:37:14.214Z,1.88
2022-12-27T21:40:15.535Z,1.80
2022-12-27T21:43:16.823Z,1.65
2022-12-27T21:46:20.111Z,1.63
2022-12-27T21:49:21.508Z,1.92
2022-12-27T21:52:22.815Z,1.55
2022-12-27T21:55:24.117Z,1.80
2022-12-27T21:58:25.375Z,2.30
2022-12-27T22:01:28.167Z,2.15
2022-12-27T22:04:29.520Z,2.10
2022-12-27T22:07:30.817Z,1.90
2022-12-27T22:10:33.162Z,1.50
2022-12-27T22:13:34.534Z,1.35
2022-12-27T22:16:37.151Z,2.30
2022-12-27T22:19:38.489Z,1.80
2022-12-27T22:22:39.802Z,2.58
2022-12-27T22:25:44.469Z,2.35
2022-12-27T22:28:46.166Z,1.42
2022-12-27T22:31:47.489Z,2.40
2022-12-27T22:34:48.789Z,1.27
2022-12-27T22:37:50.103Z,1.88
2022-12-27T22:40:51.415Z,1.70
2022-12-27T22:43:54.308Z,2.15
2022-12-27T22:47:25.036Z,1.42
2022-12-27T22:53:21.561Z,1.17
2022-12-27T22:56:24.273Z,1.90
2022-12-27T22:59:25.626Z,1.33
2022-12-27T23:02:27.089Z,2.38
2022-12-27T23:05:28.459Z,1.77
2022-12-27T23:08:29.838Z,2.13
2022-12-27T23:11:32.755Z,1.67
2022-12-27T23:14:34.048Z,1.83
2022-12-27T23:17:35.407Z,1.73
2022-12-27T23:20:36.884Z,2.47
2022-12-27T23:23:38.177Z,2.38
2022-12-27T23:26:39.990Z,2.78
2022-12-27T23:29:41.288Z,1.63
2022-12-27T23:32:42.583Z,1.77
2022-12-27T23:35:43.871Z,1.65
2022-12-27T23:38:45.155Z,2.15
2022-12-27T23:41:46.512Z,1.80
2022-12-27T23:44:47.910Z,2.45
2022-12-27T23:47:49.363Z,2.65
2022-12-27T23:50:50.625Z,3.15
2022-12-27T23:53:51.982Z,3.10
2022-12-27T23:56:53.231Z,2.90
2022-12-27T23:59:55.312Z,2.40
